createdAt,value
2023-11-27T19:58:48.870Z,101053.80
2023-11-27T20:01:17.314Z,101053.30
2023-11-27T20:03:45.009Z,101054.10
2023-11-27T20:06:12.269Z,101054.72
2023-11-27T20:08:40.045Z,101055.14
2023-11-27T20:11:08.775Z,101054.30
2023-11-27T20:13:42.813Z,101061.84
2023-11-27T20:16:10.804Z,101063.01
2023-11-27T20:18:37.939Z,101067.39
2023-11-27T20:21:05.630Z,101071.79
2023-11-27T20:23:33.010Z,101070.89
2023-11-27T20:26:00.050Z,101073.56
2023-11-27T20:28:26.993Z,101076.11
2023-11-27T20:30:55.091Z,101079.13
2023-11-27T20:33:42.588Z,101076.12
2023-11-27T20:36:09.822Z,101077.75
2023-11-27T20:38:36.709Z,101078.99
2023-11-27T20:41:03.926Z,101073.39
2023-11-27T20:43:31.688Z,101075.00
2023-11-27T20:45:58.789Z,101073.14
2023-11-27T20:48:28.919Z,101073.34
2023-11-27T20:50:55.670Z,101073.54
2023-11-27T20:53:22.508Z,101073.20
2023-11-27T20:55:50.627Z,101075.09
2023-11-27T20:58:21.247Z,101075.98
2023-11-27T21:00:48.571Z,101080.80
2023-11-27T21:03:16.344Z,101076.54
2023-11-27T21:05:46.519Z,101078.42
2023-11-27T21:08:13.771Z,101074.31
2023-11-27T21:10:40.908Z,101073.50
2023-11-27T21:13:08.434Z,101072.66
2023-11-27T21:15:35.490Z,101074.39
2023-11-27T21:18:02.809Z,101077.68
2023-11-27T21:20:29.910Z,101083.41
2023-11-27T21:22:57.262Z,101085.36
2023-11-27T21:25:24.486Z,101083.39
2023-11-27T21:27:53.119Z,101086.19
2023-11-27T21:30:19.850Z,101089.42
2023-11-27T21:32:47.822Z,101084.61
2023-11-27T21:35:15.930Z,101083.56
2023-11-27T21:37:43.718Z,101084.59
2023-11-27T21:40:11.236Z,101088.74
2023-11-27T21:42:41.491Z,101083.41
2023-11-27T21:45:09.619Z,101083.58
2023-11-27T21:47:37.857Z,101084.29
2023-11-27T21:50:07.289Z,101082.83
2023-11-27T21:52:34.218Z,101081.48
2023-11-27T21:55:01.232Z,101086.30
2023-11-27T21:57:28.364Z,101087.85
2023-11-27T21:59:55.331Z,101089.21
2023-11-27T22:02:24.545Z,101087.13
2023-11-27T22:04:52.211Z,101090.20
2023-11-27T22:07:19.343Z,101085.95
2023-11-27T22:09:47.790Z,101087.76
2023-11-27T22:12:15.174Z,101083.20
2023-11-27T22:14:42.306Z,101083.05
2023-11-27T22:17:09.352Z,101081.98
2023-11-27T22:19:36.811Z,101085.06
2023-11-27T22:22:03.651Z,101081.26
2023-11-27T22:24:30.653Z,101082.23
2023-11-27T22:26:57.827Z,101083.25
2023-11-27T22:29:24.560Z,101086.67
2023-11-27T22:31:52.490Z,101084.24
2023-11-27T22:34:19.685Z,101082.17
2023-11-27T22:36:46.531Z,101078.55
2023-11-27T22:39:13.339Z,101085.42
2023-11-27T22:41:43.830Z,101086.94
2023-11-27T22:44:10.781Z,101087.73
2023-11-27T22:46:40.665Z,101087.09
2023-11-27T22:49:09.182Z,101084.43
2023-11-27T22:51:36.594Z,101081.27
2023-11-27T22:54:03.856Z,101081.77
2023-11-27T22:56:31.201Z,101080.88
2023-11-27T22:59:07.222Z,101080.36
2023-11-27T23:01:42.547Z,101077.56
2023-11-27T23:04:09.503Z,101084.20
2023-11-27T23:06:38.129Z,101082.26
2023-11-27T23:09:07.914Z,101082.71
2023-11-27T23:11:35.361Z,101084.08
2023-11-27T23:14:02.735Z,101087.23
2023-11-27T23:16:30.045Z,101087.98
2023-11-27T23:18:57.015Z,101087.88
2023-11-27T23:21:23.711Z,101092.85
2023-11-27T23:23:50.438Z,101090.46
2023-11-27T23:26:17.691Z,101085.33
2023-11-27T23:28:44.577Z,101086.57
2023-11-27T23:31:11.824Z,101085.76
2023-11-27T23:33:38.578Z,101090.61
2023-11-27T23:36:07.196Z,101094.77
2023-11-27T23:38:34.959Z,101089.35
2023-11-27T23:41:02.739Z,101088.02
2023-11-27T23:43:30.178Z,101090.77
2023-11-27T23:45:57.435Z,101088.56
2023-11-27T23:48:24.266Z,101086.18
2023-11-27T23:50:51.513Z,101087.37
2023-11-27T23:53:18.213Z,101089.25
2023-11-27T23:55:45.243Z,101085.30
2023-11-27T23:58:12.249Z,101080.12
